sensor_id;sensor_type;location;lat;lon;timestamp;P1;durP1;ratioP1;P2;durP2;ratioP2
2267;SDS011;11052;43.338;25.502;2023-04-25T00:00:57;1.17;;;0.93;;
2267;SDS011;11052;43.338;25.502;2023-04-25T00:03:24;2.00;;;1.13;;
2267;SDS011;11052;43.338;25.502;2023-04-25T00:05:52;1.50;;;1.40;;
2267;SDS011;11052;43.338;25.502;2023-04-25T00:08:21;1.53;;;0.93;;
2267;SDS011;11052;43.338;25.502;2023-04-25T00:10:48;1.30;;;1.20;;
2267;SDS011;11052;43.338;25.502;2023-04-25T00:13:17;1.20;;;1.10;;
2267;SDS011;11052;43.338;25.502;2023-04-25T00:15:44;2.57;;;1.90;;
2267;SDS011;11052;43.338;25.502;2023-04-25T00:18:13;1.70;;;1.60;;
2267;SDS011;11052;43.338;25.502;2023-04-25T00:20:40;1.63;;;1.00;;
2267;SDS011;11052;43.338;25.502;2023-04-25T00:23:11;1.40;;;1.20;;
2267;SDS011;11052;43.338;25.502;2023-04-25T00:25:42;1.47;;;1.27;;
2267;SDS011;11052;43.338;25.502;2023-04-25T00:28:10;2.27;;;1.77;;
2267;SDS011;11052;43.338;25.502;2023-04-25T00:30:37;2.37;;;1.47;;
2267;SDS011;11052;43.338;25.502;2023-04-25T00:33:04;1.97;;;1.77;;
2267;SDS011;11052;43.338;25.502;2023-04-25T00:35:31;3.10;;;2.80;;
2267;SDS011;11052;43.338;25.502;2023-04-25T00:37:58;1.40;;;0.93;;
2267;SDS011;11052;43.338;25.502;2023-04-25T00:40:27;1.87;;;1.77;;
2267;SDS011;11052;43.338;25.502;2023-04-25T00:42:54;1.83;;;1.53;;
2267;SDS011;11052;43.338;25.502;2023-04-25T00:45:21;2.17;;;1.83;;
2267;SDS011;11052;43.338;25.502;2023-04-25T00:47:53;1.13;;;1.03;;
2267;SDS011;11052;43.338;25.502;2023-04-25T00:50:21;1.73;;;1.40;;
2267;SDS011;11052;43.338;25.502;2023-04-25T00:52:48;1.37;;;1.20;;
2267;SDS011;11052;43.338;25.502;2023-04-25T00:55:16;2.07;;;1.97;;
2267;SDS011;11052;43.338;25.502;2023-04-25T00:57:44;1.40;;;1.27;;
2267;SDS011;11052;43.338;25.502;2023-04-25T01:00:12;1.10;;;1.00;;
2267;SDS011;11052;43.338;25.502;2023-04-25T01:02:39;2.03;;;1.67;;
2267;SDS011;11052;43.338;25.502;2023-04-25T01:05:07;1.10;;;1.00;;
2267;SDS011;11052;43.338;25.502;2023-04-25T01:07:35;2.30;;;1.60;;
2267;SDS011;11052;43.338;25.502;2023-04-25T01:10:02;1.37;;;1.27;;
2267;SDS011;11052;43.338;25.502;2023-04-25T01:12:31;1.10;;;0.90;;
2267;SDS011;11052;43.338;25.502;2023-04-25T01:14:59;1.20;;;1.07;;
2267;SDS011;11052;43.338;25.502;2023-04-25T01:17:27;1.77;;;1.30;;
2267;SDS011;11052;43.338;25.502;2023-04-25T01:19:54;1.50;;;1.40;;
2267;SDS011;11052;43.338;25.502;2023-04-25T01:22:23;2.80;;;2.00;;
2267;SDS011;11052;43.338;25.502;2023-04-25T01:24:50;2.43;;;1.80;;
2267;SDS011;11052;43.338;25.502;2023-04-25T01:27:17;5.17;;;3.00;;
2267;SDS011;11052;43.338;25.502;2023-04-25T01:29:46;1.90;;;1.23;;
2267;SDS011;11052;43.338;25.502;2023-04-25T01:32:13;2.40;;;1.27;;
2267;SDS011;11052;43.338;25.502;2023-04-25T01:34:41;2.23;;;2.03;;
2267;SDS011;11052;43.338;25.502;2023-04-25T01:37:08;2.30;;;2.10;;
2267;SDS011;11052;43.338;25.502;2023-04-25T01:39:36;1.57;;;1.47;;
2267;SDS011;11052;43.338;25.502;2023-04-25T01:42:04;2.40;;;2.20;;
2267;SDS011;11052;43.338;25.502;2023-04-25T01:44:31;1.10;;;0.93;;
2267;SDS011;11052;43.338;25.502;2023-04-25T01:46:58;1.03;;;0.87;;
2267;SDS011;11052;43.338;25.502;2023-04-25T01:49:26;1.63;;;1.53;;
2267;SDS011;11052;43.338;25.502;2023-04-25T01:51:53;3.13;;;2.93;;
2267;SDS011;11052;43.338;25.502;2023-04-25T01:54:20;1.63;;;1.53;;
2267;SDS011;11052;43.338;25.502;2023-04-25T01:56:51;1.70;;;1.27;;
2267;SDS011;11052;43.338;25.502;2023-04-25T01:59:18;1.43;;;1.33;;
2267;SDS011;11052;43.338;25.502;2023-04-25T02:01:47;1.30;;;1.13;;
2267;SDS011;11052;43.338;25.502;2023-04-25T02:04:14;2.83;;;2.00;;
2267;SDS011;11052;43.338;25.502;2023-04-25T02:06:41;2.27;;;2.07;;
2267;SDS011;11052;43.338;25.502;2023-04-25T02:09:08;2.50;;;1.73;;
2267;SDS011;11052;43.338;25.502;2023-04-25T02:11:35;1.33;;;1.23;;
2267;SDS011;11052;43.338;25.502;2023-04-25T02:14:03;1.87;;;1.77;;
2267;SDS011;11052;43.338;25.502;2023-04-25T02:16:30;1.70;;;1.60;;
2267;SDS011;11052;43.338;25.502;2023-04-25T02:18:58;1.23;;;1.07;;
2267;SDS011;11052;43.338;25.502;2023-04-25T02:21:25;1.87;;;1.60;;
2267;SDS011;11052;43.338;25.502;2023-04-25T02:23:52;2.70;;;1.43;;
2267;SDS011;11052;43.338;25.502;2023-04-25T02:26:19;1.30;;;1.20;;
2267;SDS011;11052;43.338;25.502;2023-04-25T02:28:46;2.07;;;1.63;;
2267;SDS011;11052;43.338;25.502;2023-04-25T02:31:16;2.03;;;1.90;;
2267;SDS011;11052;43.338;25.502;2023-04-25T02:33:43;1.77;;;1.17;;
2267;SDS011;11052;43.338;25.502;2023-04-25T02:36:11;1.83;;;1.40;;
2267;SDS011;11052;43.338;25.502;2023-04-25T02:38:38;1.60;;;1.50;;
2267;SDS011;11052;43.338;25.502;2023-04-25T02:41:05;1.87;;;1.37;;
2267;SDS011;11052;43.338;25.502;2023-04-25T02:43:32;2.30;;;1.87;;
2267;SDS011;11052;43.338;25.502;2023-04-25T02:45:59;2.23;;;1.30;;
2267;SDS011;11052;43.338;25.502;2023-04-25T02:48:28;1.90;;;1.70;;
2267;SDS011;11052;43.338;25.502;2023-04-25T02:50:55;1.70;;;1.60;;
2267;SDS011;11052;43.338;25.502;2023-04-25T02:53:22;1.70;;;1.60;;
2267;SDS011;11052;43.338;25.502;2023-04-25T02:55:49;2.17;;;1.37;;
2267;SDS011;11052;43.338;25.502;2023-04-25T02:58:17;5.80;;;1.67;;
2267;SDS011;11052;43.338;25.502;2023-04-25T03:00:45;2.80;;;1.90;;
2267;SDS011;11052;43.338;25.502;2023-04-25T03:03:12;2.40;;;1.67;;
2267;SDS011;11052;43.338;25.502;2023-04-25T03:05:41;1.27;;;1.17;;
2267;SDS011;11052;43.338;25.502;2023-04-25T03:08:08;2.60;;;2.23;;
2267;SDS011;11052;43.338;25.502;2023-04-25T03:10:35;1.83;;;1.33;;
2267;SDS011;11052;43.338;25.502;2023-04-25T03:13:02;2.63;;;1.17;;
2267;SDS011;11052;43.338;25.502;2023-04-25T03:15:29;1.97;;;1.87;;
2267;SDS011;11052;43.338;25.502;2023-04-25T03:17:57;1.40;;;1.30;;
2267;SDS011;11052;43.338;25.502;2023-04-25T03:20:24;2.43;;;2.23;;
2267;SDS011;11052;43.338;25.502;2023-04-25T03:22:53;3.03;;;1.70;;
2267;SDS011;11052;43.338;25.502;2023-04-25T03:25:20;2.13;;;1.27;;
2267;SDS011;11052;43.338;25.502;2023-04-25T03:27:47;1.27;;;1.17;;
2267;SDS011;11052;43.338;25.502;2023-04-25T03:30:14;1.27;;;1.10;;
2267;SDS011;11052;43.338;25.502;2023-04-25T03:32:41;1.73;;;1.63;;
2267;SDS011;11052;43.338;25.502;2023-04-25T03:35:08;2.43;;;1.57;;
2267;SDS011;11052;43.338;25.502;2023-04-25T03:37:36;1.23;;;1.10;;
2267;SDS011;11052;43.338;25.502;2023-04-25T03:40:05;2.00;;;1.80;;
2267;SDS011;11052;43.338;25.502;2023-04-25T03:42:34;1.37;;;1.27;;
2267;SDS011;11052;43.338;25.502;2023-04-25T03:45:01;2.60;;;1.87;;
2267;SDS011;11052;43.338;25.502;2023-04-25T03:47:28;1.60;;;1.50;;
2267;SDS011;11052;43.338;25.502;2023-04-25T03:49:55;3.97;;;1.60;;
2267;SDS011;11052;43.338;25.502;2023-04-25T03:52:22;1.17;;;1.07;;
2267;SDS011;11052;43.338;25.502;2023-04-25T03:54:49;2.33;;;2.00;;
2267;SDS011;11052;43.338;25.502;2023-04-25T03:57:18;1.57;;;1.47;;
2267;SDS011;11052;43.338;25.502;2023-04-25T03:59:45;1.60;;;1.50;;
2267;SDS011;11052;43.338;25.502;2023-04-25T04:02:12;2.50;;;2.23;;
2267;SDS011;11052;43.338;25.502;2023-04-25T04:04:39;1.90;;;1.60;;
2267;SDS011;11052;43.338;25.502;2023-04-25T04:07:06;1.73;;;1.53;;
2267;SDS011;11052;43.338;25.502;2023-04-25T04:09:33;1.60;;;1.50;;
2267;SDS011;11052;43.338;25.502;2023-04-25T04:12:00;2.27;;;2.07;;
2267;SDS011;11052;43.338;25.502;2023-04-25T04:14:29;1.33;;;1.23;;
2267;SDS011;11052;43.338;25.502;2023-04-25T04:16:56;2.77;;;2.57;;
2267;SDS011;11052;43.338;25.502;2023-04-25T04:19:23;4.23;;;2.57;;
2267;SDS011;11052;43.338;25.502;2023-04-25T04:21:50;1.87;;;1.43;;
2267;SDS011;11052;43.338;25.502;2023-04-25T04:24:17;2.43;;;2.23;;
2267;SDS011;11052;43.338;25.502;2023-04-25T04:26:44;3.30;;;3.00;;
2267;SDS011;11052;43.338;25.502;2023-04-25T04:29:11;2.90;;;2.13;;
2267;SDS011;11052;43.338;25.502;2023-04-25T04:31:47;3.50;;;1.70;;
2267;SDS011;11052;43.338;25.502;2023-04-25T04:34:14;4.40;;;3.20;;
2267;SDS011;11052;43.338;25.502;2023-04-25T04:36:43;3.20;;;1.80;;
2267;SDS011;11052;43.338;25.502;2023-04-25T04:39:11;2.10;;;1.93;;
2267;SDS011;11052;43.338;25.502;2023-04-25T04:41:38;3.67;;;2.30;;
2267;SDS011;11052;43.338;25.502;2023-04-25T04:44:05;2.27;;;1.80;;
2267;SDS011;11052;43.338;25.502;2023-04-25T04:46:34;1.67;;;1.57;;
2267;SDS011;11052;43.338;25.502;2023-04-25T04:49:05;1.57;;;1.47;;
2267;SDS011;11052;43.338;25.502;2023-04-25T04:51:32;2.60;;;2.40;;
2267;SDS011;11052;43.338;25.502;2023-04-25T04:53:59;4.27;;;2.53;;
2267;SDS011;11052;43.338;25.502;2023-04-25T04:56:27;2.63;;;1.73;;
2267;SDS011;11052;43.338;25.502;2023-04-25T04:58:56;2.50;;;2.17;;
2267;SDS011;11052;43.338;25.502;2023-04-25T05:01:23;1.63;;;1.53;;
2267;SDS011;11052;43.338;25.502;2023-04-25T05:03:52;2.33;;;2.13;;
2267;SDS011;11052;43.338;25.502;2023-04-25T05:06:26;4.30;;;2.20;;
2267;SDS011;11052;43.338;25.502;2023-04-25T05:08:55;2.47;;;2.27;;
2267;SDS011;11052;43.338;25.502;2023-04-25T05:11:22;2.43;;;2.23;;
2267;SDS011;11052;43.338;25.502;2023-04-25T05:13:50;2.83;;;1.30;;
2267;SDS011;11052;43.338;25.502;2023-04-25T05:16:18;3.43;;;3.00;;
2267;SDS011;11052;43.338;25.502;2023-04-25T05:18:45;5.97;;;3.07;;
2267;SDS011;11052;43.338;25.502;2023-04-25T05:21:13;4.20;;;2.73;;
2267;SDS011;11052;43.338;25.502;2023-04-25T05:23:41;2.30;;;2.03;;
2267;SDS011;11052;43.338;25.502;2023-04-25T05:26:08;2.30;;;1.80;;
2267;SDS011;11052;43.338;25.502;2023-04-25T05:28:39;2.10;;;1.43;;
2267;SDS011;11052;43.338;25.502;2023-04-25T05:31:06;6.60;;;2.13;;
2267;SDS011;11052;43.338;25.502;2023-04-25T05:33:34;2.10;;;1.90;;
2267;SDS011;11052;43.338;25.502;2023-04-25T05:36:02;3.33;;;3.03;;
2267;SDS011;11052;43.338;25.502;2023-04-25T05:38:29;4.40;;;3.10;;
2267;SDS011;11052;43.338;25.502;2023-04-25T05:40:57;4.20;;;2.80;;
2267;SDS011;11052;43.338;25.502;2023-04-25T05:43:25;2.60;;;2.40;;
2267;SDS011;11052;43.338;25.502;2023-04-25T05:45:52;6.57;;;3.23;;
2267;SDS011;11052;43.338;25.502;2023-04-25T05:48:19;1.70;;;1.60;;
2267;SDS011;11052;43.338;25.502;2023-04-25T05:50:46;1.73;;;1.63;;
2267;SDS011;11052;43.338;25.502;2023-04-25T05:53:13;2.50;;;1.90;;
2267;SDS011;11052;43.338;25.502;2023-04-25T05:55:40;2.57;;;2.37;;
2267;SDS011;11052;43.338;25.502;2023-04-25T05:58:09;3.13;;;1.87;;
2267;SDS011;11052;43.338;25.502;2023-04-25T06:00:36;1.87;;;1.70;;
2267;SDS011;11052;43.338;25.502;2023-04-25T06:03:03;4.33;;;2.20;;
2267;SDS011;11052;43.338;25.502;2023-04-25T06:05:32;2.80;;;2.30;;
2267;SDS011;11052;43.338;25.502;2023-04-25T06:07:59;2.20;;;1.47;;
2267;SDS011;11052;43.338;25.502;2023-04-25T06:10:26;3.93;;;3.17;;
2267;SDS011;11052;43.338;25.502;2023-04-25T06:12:55;2.70;;;2.50;;
2267;SDS011;11052;43.338;25.502;2023-04-25T06:15:23;3.30;;;2.13;;
2267;SDS011;11052;43.338;25.502;2023-04-25T06:17:50;3.53;;;2.57;;
2267;SDS011;11052;43.338;25.502;2023-04-25T06:20:18;3.73;;;3.20;;
2267;SDS011;11052;43.338;25.502;2023-04-25T06:22:49;2.27;;;1.80;;
2267;SDS011;11052;43.338;25.502;2023-04-25T06:25:17;2.83;;;2.10;;
2267;SDS011;11052;43.338;25.502;2023-04-25T06:27:45;1.80;;;1.70;;
2267;SDS011;11052;43.338;25.502;2023-04-25T06:30:12;1.93;;;1.60;;
2267;SDS011;11052;43.338;25.502;2023-04-25T06:32:41;1.93;;;1.83;;
2267;SDS011;11052;43.338;25.502;2023-04-25T06:35:08;3.90;;;3.20;;
2267;SDS011;11052;43.338;25.502;2023-04-25T06:37:36;2.20;;;2.00;;
2267;SDS011;11052;43.338;25.502;2023-04-25T06:40:04;2.73;;;1.93;;
2267;SDS011;11052;43.338;25.502;2023-04-25T06:42:32;3.20;;;1.83;;
2267;SDS011;11052;43.338;25.502;2023-04-25T06:44:59;1.93;;;1.50;;
2267;SDS011;11052;43.338;25.502;2023-04-25T06:47:26;1.87;;;1.37;;
2267;SDS011;11052;43.338;25.502;2023-04-25T06:49:56;1.63;;;1.53;;
2267;SDS011;11052;43.338;25.502;2023-04-25T06:52:23;2.33;;;2.07;;
2267;SDS011;11052;43.338;25.502;2023-04-25T06:54:50;3.73;;;2.40;;
2267;SDS011;11052;43.338;25.502;2023-04-25T06:57:17;2.07;;;1.87;;
2267;SDS011;11052;43.338;25.502;2023-04-25T06:59:44;2.90;;;2.63;;
2267;SDS011;11052;43.338;25.502;2023-04-25T07:02:11;1.20;;;1.10;;
2267;SDS011;11052;43.338;25.502;2023-04-25T07:04:39;1.67;;;1.20;;
2267;SDS011;11052;43.338;25.502;2023-04-25T07:07:07;3.00;;;2.43;;
2267;SDS011;11052;43.338;25.502;2023-04-25T07:09:34;2.57;;;1.47;;
2267;SDS011;11052;43.338;25.502;2023-04-25T07:12:01;2.73;;;2.13;;
2267;SDS011;11052;43.338;25.502;2023-04-25T07:14:29;2.10;;;1.90;;
2267;SDS011;11052;43.338;25.502;2023-04-25T07:16:56;9.23;;;1.90;;
2267;SDS011;11052;43.338;25.502;2023-04-25T07:19:23;5.47;;;2.63;;
2267;SDS011;11052;43.338;25.502;2023-04-25T07:21:51;3.70;;;3.40;;
2267;SDS011;11052;43.338;25.502;2023-04-25T07:24:20;3.30;;;1.97;;
2267;SDS011;11052;43.338;25.502;2023-04-25T07:26:47;2.10;;;1.50;;
2267;SDS011;11052;43.338;25.502;2023-04-25T07:29:14;3.63;;;2.30;;
2267;SDS011;11052;43.338;25.502;2023-04-25T07:31:41;2.40;;;2.10;;
2267;SDS011;11052;43.338;25.502;2023-04-25T07:34:08;2.90;;;2.03;;
2267;SDS011;11052;43.338;25.502;2023-04-25T07:36:36;2.70;;;2.10;;
2267;SDS011;11052;43.338;25.502;2023-04-25T07:39:03;3.27;;;1.47;;
2267;SDS011;11052;43.338;25.502;2023-04-25T07:41:32;2.80;;;2.13;;
2267;SDS011;11052;43.338;25.502;2023-04-25T07:44:00;2.80;;;2.40;;
2267;SDS011;11052;43.338;25.502;2023-04-25T07:46:27;3.37;;;2.97;;
2267;SDS011;11052;43.338;25.502;2023-04-25T07:48:54;2.57;;;1.70;;
2267;SDS011;11052;43.338;25.502;2023-04-25T07:51:21;3.83;;;2.47;;
2267;SDS011;11052;43.338;25.502;2023-04-25T07:53:48;4.43;;;3.20;;
2267;SDS011;11052;43.338;25.502;2023-04-25T07:56:15;3.27;;;2.40;;
2267;SDS011;11052;43.338;25.502;2023-04-25T07:58:44;3.33;;;2.03;;
2267;SDS011;11052;43.338;25.502;2023-04-25T08:01:11;4.50;;;2.87;;
2267;SDS011;11052;43.338;25.502;2023-04-25T08:03:38;1.63;;;1.07;;
2267;SDS011;11052;43.338;25.502;2023-04-25T08:06:05;1.90;;;1.70;;
2267;SDS011;11052;43.338;25.502;2023-04-25T08:08:33;1.93;;;1.30;;
2267;SDS011;11052;43.338;25.502;2023-04-25T08:11:00;1.73;;;1.13;;
2267;SDS011;11052;43.338;25.502;2023-04-25T08:13:27;0.90;;;0.60;;
2267;SDS011;11052;43.338;25.502;2023-04-25T08:15:56;2.40;;;0.90;;
2267;SDS011;11052;43.338;25.502;2023-04-25T08:18:23;0.90;;;0.50;;
2267;SDS011;11052;43.338;25.502;2023-04-25T08:20:50;1.07;;;0.97;;
2267;SDS011;11052;43.338;25.502;2023-04-25T08:23:17;0.80;;;0.50;;
2267;SDS011;11052;43.338;25.502;2023-04-25T08:25:44;0.90;;;0.80;;
2267;SDS011;11052;43.338;25.502;2023-04-25T08:28:11;1.03;;;0.77;;
2267;SDS011;11052;43.338;25.502;2023-04-25T08:30:38;1.37;;;0.90;;
2267;SDS011;11052;43.338;25.502;2023-04-25T08:33:07;1.17;;;0.90;;
2267;SDS011;11052;43.338;25.502;2023-04-25T08:35:35;1.20;;;0.93;;
2267;SDS011;11052;43.338;25.502;2023-04-25T08:38:02;1.00;;;0.70;;
2267;SDS011;11052;43.338;25.502;2023-04-25T08:40:29;0.90;;;0.60;;
2267;SDS011;11052;43.338;25.502;2023-04-25T08:43:01;1.00;;;0.80;;
2267;SDS011;11052;43.338;25.502;2023-04-25T08:45:30;1.10;;;0.80;;
2267;SDS011;11052;43.338;25.502;2023-04-25T08:47:58;1.43;;;1.10;;
2267;SDS011;11052;43.338;25.502;2023-04-25T08:50:28;0.80;;;0.60;;
2267;SDS011;11052;43.338;25.502;2023-04-25T08:52:56;1.03;;;0.83;;
2267;SDS011;11052;43.338;25.502;2023-04-25T08:55:26;1.63;;;0.80;;
2267;SDS011;11052;43.338;25.502;2023-04-25T08:57:54;0.90;;;0.67;;
2267;SDS011;11052;43.338;25.502;2023-04-25T09:00:22;3.00;;;1.20;;
2267;SDS011;11052;43.338;25.502;2023-04-25T09:02:50;1.60;;;1.10;;
2267;SDS011;11052;43.338;25.502;2023-04-25T09:05:17;1.00;;;0.70;;
2267;SDS011;11052;43.338;25.502;2023-04-25T09:07:46;0.90;;;0.60;;
2267;SDS011;11052;43.338;25.502;2023-04-25T09:10:13;0.90;;;0.60;;
2267;SDS011;11052;43.338;25.502;2023-04-25T09:12:40;1.20;;;0.90;;
2267;SDS011;11052;43.338;25.502;2023-04-25T09:15:08;1.30;;;1.00;;
2267;SDS011;11052;43.338;25.502;2023-04-25T09:17:36;5.33;;;1.30;;
2267;SDS011;11052;43.338;25.502;2023-04-25T09:20:08;1.37;;;0.77;;
2267;SDS011;11052;43.338;25.502;2023-04-25T09:22:36;1.07;;;0.83;;
2267;SDS011;11052;43.338;25.502;2023-04-25T09:25:09;0.90;;;0.67;;
2267;SDS011;11052;43.338;25.502;2023-04-25T09:27:37;1.87;;;0.70;;
2267;SDS011;11052;43.338;25.502;2023-04-25T09:30:16;5.57;;;1.13;;
2267;SDS011;11052;43.338;25.502;2023-04-25T09:32:43;1.10;;;0.80;;
2267;SDS011;11052;43.338;25.502;2023-04-25T09:35:11;0.90;;;0.77;;
2267;SDS011;11052;43.338;25.502;2023-04-25T09:37:50;0.80;;;0.50;;
2267;SDS011;11052;43.338;25.502;2023-04-25T09:40:19;0.90;;;0.60;;
2267;SDS011;11052;43.338;25.502;2023-04-25T09:42:46;0.90;;;0.77;;
2267;SDS011;11052;43.338;25.502;2023-04-25T09:45:13;1.00;;;0.67;;
2267;SDS011;11052;43.338;25.502;2023-04-25T09:47:41;1.90;;;1.07;;
2267;SDS011;11052;43.338;25.502;2023-04-25T09:50:13;0.90;;;0.60;;
2267;SDS011;11052;43.338;25.502;2023-04-25T09:52:41;0.90;;;0.50;;
2267;SDS011;11052;43.338;25.502;2023-04-25T09:55:08;1.10;;;0.60;;
2267;SDS011;11052;43.338;25.502;2023-04-25T09:57:37;0.80;;;0.60;;
2267;SDS011;11052;43.338;25.502;2023-04-25T10:00:06;0.80;;;0.50;;
2267;SDS011;11052;43.338;25.502;2023-04-25T10:02:37;0.80;;;0.50;;
2267;SDS011;11052;43.338;25.502;2023-04-25T10:05:07;0.90;;;0.50;;
2267;SDS011;11052;43.338;25.502;2023-04-25T10:07:35;0.90;;;0.50;;
2267;SDS011;11052;43.338;25.502;2023-04-25T10:10:04;0.80;;;0.50;;
2267;SDS011;11052;43.338;25.502;2023-04-25T10:12:32;0.80;;;0.50;;
2267;SDS011;11052;43.338;25.502;2023-04-25T10:15:01;0.90;;;0.60;;
2267;SDS011;11052;43.338;25.502;2023-04-25T10:17:30;0.90;;;0.50;;
2267;SDS011;11052;43.338;25.502;2023-04-25T10:19:59;1.60;;;0.73;;
2267;SDS011;11052;43.338;25.502;2023-04-25T10:22:31;0.80;;;0.60;;
2267;SDS011;11052;43.338;25.502;2023-04-25T10:25:01;0.90;;;0.60;;
2267;SDS011;11052;43.338;25.502;2023-04-25T10:27:29;1.47;;;1.00;;
2267;SDS011;11052;43.338;25.502;2023-04-25T10:30:02;17.60;;;1.73;;
2267;SDS011;11052;43.338;25.502;2023-04-25T10:32:31;0.80;;;0.50;;
2267;SDS011;11052;43.338;25.502;2023-04-25T10:35:09;1.20;;;0.70;;
2267;SDS011;11052;43.338;25.502;2023-04-25T10:37:38;0.90;;;0.70;;
2267;SDS011;11052;43.338;25.502;2023-04-25T10:40:08;1.93;;;0.97;;
2267;SDS011;11052;43.338;25.502;2023-04-25T10:42:36;2.60;;;1.00;;
2267;SDS011;11052;43.338;25.502;2023-04-25T10:45:06;2.73;;;1.50;;
2267;SDS011;11052;43.338;25.502;2023-04-25T10:47:34;2.27;;;1.93;;
2267;SDS011;11052;43.338;25.502;2023-04-25T10:50:04;1.63;;;1.27;;
2267;SDS011;11052;43.338;25.502;2023-04-25T10:52:32;1.13;;;0.63;;
2267;SDS011;11052;43.338;25.502;2023-04-25T10:54:59;1.10;;;0.73;;
2267;SDS011;11052;43.338;25.502;2023-04-25T10:57:31;0.90;;;0.63;;
2267;SDS011;11052;43.338;25.502;2023-04-25T11:00:07;1.53;;;1.27;;
2267;SDS011;11052;43.338;25.502;2023-04-25T11:02:37;0.83;;;0.50;;
2267;SDS011;11052;43.338;25.502;2023-04-25T11:05:08;1.10;;;0.60;;
2267;SDS011;11052;43.338;25.502;2023-04-25T11:07:42;1.10;;;0.80;;
2267;SDS011;11052;43.338;25.502;2023-04-25T11:10:16;0.90;;;0.60;;
2267;SDS011;11052;43.338;25.502;2023-04-25T11:12:44;1.30;;;0.83;;
2267;SDS011;11052;43.338;25.502;2023-04-25T11:15:13;1.00;;;0.70;;
2267;SDS011;11052;43.338;25.502;2023-04-25T11:17:40;1.73;;;0.80;;
2267;SDS011;11052;43.338;25.502;2023-04-25T11:20:08;1.00;;;0.90;;
2267;SDS011;11052;43.338;25.502;2023-04-25T11:22:37;0.80;;;0.50;;
2267;SDS011;11052;43.338;25.502;2023-04-25T11:25:06;0.90;;;0.70;;
2267;SDS011;11052;43.338;25.502;2023-04-25T11:27:34;1.00;;;0.63;;
2267;SDS011;11052;43.338;25.502;2023-04-25T11:30:13;1.30;;;1.03;;
2267;SDS011;11052;43.338;25.502;2023-04-25T11:32:42;0.90;;;0.60;;
2267;SDS011;11052;43.338;25.502;2023-04-25T11:35:09;0.90;;;0.60;;
2267;SDS011;11052;43.338;25.502;2023-04-25T11:37:38;0.90;;;0.77;;
2267;SDS011;11052;43.338;25.502;2023-04-25T11:40:06;1.10;;;0.60;;
2267;SDS011;11052;43.338;25.502;2023-04-25T11:42:36;1.00;;;0.77;;
2267;SDS011;11052;43.338;25.502;2023-04-25T11:45:04;1.00;;;0.63;;
2267;SDS011;11052;43.338;25.502;2023-04-25T11:47:33;1.20;;;0.73;;
2267;SDS011;11052;43.338;25.502;2023-04-25T11:50:01;0.90;;;0.73;;
2267;SDS011;11052;43.338;25.502;2023-04-25T11:52:38;0.90;;;0.60;;
2267;SDS011;11052;43.338;25.502;2023-04-25T11:55:07;0.80;;;0.50;;
2267;SDS011;11052;43.338;25.502;2023-04-25T11:57:37;0.80;;;0.60;;
2267;SDS011;11052;43.338;25.502;2023-04-25T12:00:08;1.40;;;0.60;;
2267;SDS011;11052;43.338;25.502;2023-04-25T12:02:41;1.40;;;0.87;;
2267;SDS011;11052;43.338;25.502;2023-04-25T12:05:09;1.37;;;0.80;;
2267;SDS011;11052;43.338;25.502;2023-04-25T12:07:37;0.90;;;0.80;;
2267;SDS011;11052;43.338;25.502;2023-04-25T12:10:04;1.57;;;0.60;;
2267;SDS011;11052;43.338;25.502;2023-04-25T12:12:33;1.03;;;0.70;;
2267;SDS011;11052;43.338;25.502;2023-04-25T12:15:11;1.70;;;1.40;;
2267;SDS011;11052;43.338;25.502;2023-04-25T12:17:42;1.23;;;1.00;;
2267;SDS011;11052;43.338;25.502;2023-04-25T12:20:12;1.10;;;0.90;;
2267;SDS011;11052;43.338;25.502;2023-04-25T12:22:41;1.00;;;0.80;;
2267;SDS011;11052;43.338;25.502;2023-04-25T12:25:11;1.20;;;0.90;;
2267;SDS011;11052;43.338;25.502;2023-04-25T12:27:39;1.00;;;0.60;;
2267;SDS011;11052;43.338;25.502;2023-04-25T12:30:07;1.00;;;0.70;;
2267;SDS011;11052;43.338;25.502;2023-04-25T12:32:36;0.90;;;0.70;;
2267;SDS011;11052;43.338;25.502;2023-04-25T12:35:05;2.07;;;1.00;;
2267;SDS011;11052;43.338;25.502;2023-04-25T12:37:33;1.10;;;0.77;;
2267;SDS011;11052;43.338;25.502;2023-04-25T12:40:00;1.40;;;0.90;;
2267;SDS011;11052;43.338;25.502;2023-04-25T12:42:29;1.10;;;0.67;;
2267;SDS011;11052;43.338;25.502;2023-04-25T12:44:56;2.00;;;1.20;;
2267;SDS011;11052;43.338;25.502;2023-04-25T12:47:23;0.90;;;0.70;;
2267;SDS011;11052;43.338;25.502;2023-04-25T12:49:50;1.60;;;1.20;;
2267;SDS011;11052;43.338;25.502;2023-04-25T12:52:19;1.10;;;0.77;;
2267;SDS011;11052;43.338;25.502;2023-04-25T12:54:46;1.73;;;1.00;;
2267;SDS011;11052;43.338;25.502;2023-04-25T12:57:13;1.63;;;1.17;;
2267;SDS011;11052;43.338;25.502;2023-04-25T12:59:40;0.90;;;0.60;;
2267;SDS011;11052;43.338;25.502;2023-04-25T13:02:07;1.40;;;0.70;;
2267;SDS011;11052;43.338;25.502;2023-04-25T13:04:35;1.47;;;0.80;;
2267;SDS011;11052;43.338;25.502;2023-04-25T13:07:02;0.80;;;0.50;;
2267;SDS011;11052;43.338;25.502;2023-04-25T13:09:30;1.30;;;1.00;;
2267;SDS011;11052;43.338;25.502;2023-04-25T13:11:57;1.13;;;0.87;;
2267;SDS011;11052;43.338;25.502;2023-04-25T13:14:24;1.93;;;0.93;;
2267;SDS011;11052;43.338;25.502;2023-04-25T13:16:52;0.93;;;0.77;;
2267;SDS011;11052;43.338;25.502;2023-04-25T13:19:19;0.80;;;0.50;;
2267;SDS011;11052;43.338;25.502;2023-04-25T13:21:46;0.83;;;0.60;;
2267;SDS011;11052;43.338;25.502;2023-04-25T13:24:13;1.20;;;0.50;;
2267;SDS011;11052;43.338;25.502;2023-04-25T13:26:43;1.00;;;0.70;;
2267;SDS011;11052;43.338;25.502;2023-04-25T13:29:10;0.80;;;0.50;;
2267;SDS011;11052;43.338;25.502;2023-04-25T13:31:37;1.20;;;0.77;;
2267;SDS011;11052;43.338;25.502;2023-04-25T13:34:04;1.10;;;0.60;;
2267;SDS011;11052;43.338;25.502;2023-04-25T13:36:31;2.40;;;0.87;;
2267;SDS011;11052;43.338;25.502;2023-04-25T13:38:59;1.00;;;0.83;;
2267;SDS011;11052;43.338;25.502;2023-04-25T13:41:26;2.37;;;1.10;;
2267;SDS011;11052;43.338;25.502;2023-04-25T13:43:54;1.00;;;0.60;;
2267;SDS011;11052;43.338;25.502;2023-04-25T13:46:21;3.30;;;1.20;;
2267;SDS011;11052;43.338;25.502;2023-04-25T13:48:48;1.20;;;0.70;;
2267;SDS011;11052;43.338;25.502;2023-04-25T13:51:16;1.27;;;0.70;;
2267;SDS011;11052;43.338;25.502;2023-04-25T13:53:43;0.80;;;0.60;;
2267;SDS011;11052;43.338;25.502;2023-04-25T13:56:10;0.80;;;0.50;;
2267;SDS011;11052;43.338;25.502;2023-04-25T13:58:38;2.00;;;1.27;;
2267;SDS011;11052;43.338;25.502;2023-04-25T14:01:07;0.90;;;0.60;;
2267;SDS011;11052;43.338;25.502;2023-04-25T14:03:34;1.00;;;0.90;;
2267;SDS011;11052;43.338;25.502;2023-04-25T14:06:01;1.20;;;0.60;;
2267;SDS011;11052;43.338;25.502;2023-04-25T14:08:29;1.93;;;0.83;;
2267;SDS011;11052;43.338;25.502;2023-04-25T14:10:56;0.80;;;0.50;;
2267;SDS011;11052;43.338;25.502;2023-04-25T14:13:24;0.80;;;0.60;;
2267;SDS011;11052;43.338;25.502;2023-04-25T14:15:51;1.20;;;0.60;;
2267;SDS011;11052;43.338;25.502;2023-04-25T14:18:20;2.80;;;2.60;;
2267;SDS011;11052;43.338;25.502;2023-04-25T14:20:47;0.80;;;0.50;;
2267;SDS011;11052;43.338;25.502;2023-04-25T14:23:14;1.10;;;0.77;;
2267;SDS011;11052;43.338;25.502;2023-04-25T14:25:42;1.50;;;0.50;;
2267;SDS011;11052;43.338;25.502;2023-04-25T14:28:10;0.90;;;0.50;;
2267;SDS011;11052;43.338;25.502;2023-04-25T14:30:37;0.80;;;0.40;;
2267;SDS011;11052;43.338;25.502;2023-04-25T14:33:04;1.10;;;0.50;;
2267;SDS011;11052;43.338;25.502;2023-04-25T14:35:32;1.00;;;0.70;;
2267;SDS011;11052;43.338;25.502;2023-04-25T14:38:00;1.30;;;0.80;;
2267;SDS011;11052;43.338;25.502;2023-04-25T14:40:27;0.90;;;0.60;;
2267;SDS011;11052;43.338;25.502;2023-04-25T14:42:54;0.80;;;0.50;;
2267;SDS011;11052;43.338;25.502;2023-04-25T14:45:21;2.03;;;0.70;;
2267;SDS011;11052;43.338;25.502;2023-04-25T14:47:48;4.20;;;0.80;;
2267;SDS011;11052;43.338;25.502;2023-04-25T14:50:16;2.00;;;0.90;;
2267;SDS011;11052;43.338;25.502;2023-04-25T14:52:45;1.93;;;0.80;;